sensor_id;sensor_type;location;lat;lon;timestamp;P1;durP1;ratioP1;P2;durP2;ratioP2
20476;SDS011;10397;50.948;11.092;2023-04-25T00:01:20;5.67;;;2.70;;
20476;SDS011;10397;50.948;11.092;2023-04-25T00:03:50;3.00;;;1.80;;
20476;SDS011;10397;50.948;11.092;2023-04-25T00:06:21;4.87;;;2.40;;
20476;SDS011;10397;50.948;11.092;2023-04-25T00:08:53;5.03;;;2.77;;
20476;SDS011;10397;50.948;11.092;2023-04-25T00:11:23;2.65;;;2.25;;
20476;SDS011;10397;50.948;11.092;2023-04-25T00:13:54;9.23;;;2.42;;
20476;SDS011;10397;50.948;11.092;2023-04-25T00:16:26;4.22;;;2.80;;
20476;SDS011;10397;50.948;11.092;2023-04-25T00:18:57;4.92;;;2.27;;
20476;SDS011;10397;50.948;11.092;2023-04-25T00:21:29;4.37;;;2.98;;
20476;SDS011;10397;50.948;11.092;2023-04-25T00:24:00;5.20;;;2.85;;
20476;SDS011;10397;50.948;11.092;2023-04-25T00:26:31;4.45;;;2.92;;
20476;SDS011;10397;50.948;11.092;2023-04-25T00:29:01;3.27;;;2.20;;
20476;SDS011;10397;50.948;11.092;2023-04-25T00:31:33;5.92;;;2.60;;
20476;SDS011;10397;50.948;11.092;2023-04-25T00:34:05;5.35;;;2.90;;
20476;SDS011;10397;50.948;11.092;2023-04-25T00:36:35;9.30;;;2.83;;
20476;SDS011;10397;50.948;11.092;2023-04-25T00:39:06;5.33;;;3.00;;
20476;SDS011;10397;50.948;11.092;2023-04-25T00:41:37;6.20;;;2.35;;
20476;SDS011;10397;50.948;11.092;2023-04-25T00:44:09;3.05;;;2.60;;
20476;SDS011;10397;50.948;11.092;2023-04-25T00:46:40;5.83;;;2.70;;
20476;SDS011;10397;50.948;11.092;2023-04-25T00:49:12;4.80;;;2.70;;
20476;SDS011;10397;50.948;11.092;2023-04-25T00:51:43;3.67;;;2.30;;
20476;SDS011;10397;50.948;11.092;2023-04-25T00:54:15;7.78;;;2.92;;
20476;SDS011;10397;50.948;11.092;2023-04-25T00:56:46;4.67;;;2.45;;
20476;SDS011;10397;50.948;11.092;2023-04-25T00:59:18;4.45;;;2.12;;
20476;SDS011;10397;50.948;11.092;2023-04-25T01:01:48;7.40;;;2.57;;
20476;SDS011;10397;50.948;11.092;2023-04-25T01:04:19;3.12;;;2.42;;
20476;SDS011;10397;50.948;11.092;2023-04-25T01:06:51;4.95;;;2.67;;
20476;SDS011;10397;50.948;11.092;2023-04-25T01:09:22;5.28;;;2.40;;
20476;SDS011;10397;50.948;11.092;2023-04-25T01:11:53;4.47;;;2.75;;
20476;SDS011;10397;50.948;11.092;2023-04-25T01:14:25;4.42;;;2.83;;
20476;SDS011;10397;50.948;11.092;2023-04-25T01:16:56;5.42;;;2.87;;
20476;SDS011;10397;50.948;11.092;2023-04-25T01:19:27;3.77;;;2.17;;
20476;SDS011;10397;50.948;11.092;2023-04-25T01:21:59;5.17;;;2.67;;
20476;SDS011;10397;50.948;11.092;2023-04-25T01:24:32;7.57;;;3.10;;
20476;SDS011;10397;50.948;11.092;2023-04-25T01:27:03;3.73;;;2.43;;
20476;SDS011;10397;50.948;11.092;2023-04-25T01:29:35;3.70;;;2.72;;
20476;SDS011;10397;50.948;11.092;2023-04-25T01:32:05;5.05;;;2.87;;
20476;SDS011;10397;50.948;11.092;2023-04-25T01:34:37;5.72;;;2.55;;
20476;SDS011;10397;50.948;11.092;2023-04-25T01:37:08;4.35;;;2.83;;
20476;SDS011;10397;50.948;11.092;2023-04-25T01:39:40;3.98;;;2.90;;
20476;SDS011;10397;50.948;11.092;2023-04-25T01:42:12;4.30;;;2.92;;
20476;SDS011;10397;50.948;11.092;2023-04-25T01:44:42;4.58;;;2.37;;
20476;SDS011;10397;50.948;11.092;2023-04-25T01:47:14;8.80;;;2.83;;
20476;SDS011;10397;50.948;11.092;2023-04-25T01:49:44;5.78;;;2.98;;
20476;SDS011;10397;50.948;11.092;2023-04-25T01:52:15;5.53;;;2.85;;
20476;SDS011;10397;50.948;11.092;2023-04-25T01:54:46;4.30;;;2.77;;
20476;SDS011;10397;50.948;11.092;2023-04-25T01:57:17;6.53;;;3.20;;
20476;SDS011;10397;50.948;11.092;2023-04-25T01:59:49;5.15;;;2.72;;
20476;SDS011;10397;50.948;11.092;2023-04-25T02:02:20;6.25;;;3.00;;
20476;SDS011;10397;50.948;11.092;2023-04-25T02:04:52;4.25;;;3.02;;
20476;SDS011;10397;50.948;11.092;2023-04-25T02:07:23;4.30;;;3.00;;
20476;SDS011;10397;50.948;11.092;2023-04-25T02:09:54;4.10;;;2.52;;
20476;SDS011;10397;50.948;11.092;2023-04-25T02:12:27;5.20;;;3.58;;
20476;SDS011;10397;50.948;11.092;2023-04-25T02:14:56;5.13;;;2.87;;
20476;SDS011;10397;50.948;11.092;2023-04-25T02:17:27;4.87;;;2.60;;
20476;SDS011;10397;50.948;11.092;2023-04-25T02:19:59;4.92;;;2.80;;
20476;SDS011;10397;50.948;11.092;2023-04-25T02:22:29;4.80;;;3.00;;
20476;SDS011;10397;50.948;11.092;2023-04-25T02:25:00;5.20;;;3.20;;
20476;SDS011;10397;50.948;11.092;2023-04-25T02:27:31;5.97;;;2.27;;
20476;SDS011;10397;50.948;11.092;2023-04-25T02:30:04;4.83;;;2.77;;
20476;SDS011;10397;50.948;11.092;2023-04-25T02:32:34;4.28;;;2.62;;
20476;SDS011;10397;50.948;11.092;2023-04-25T02:35:06;8.48;;;3.10;;
20476;SDS011;10397;50.948;11.092;2023-04-25T02:37:37;3.33;;;2.87;;
20476;SDS011;10397;50.948;11.092;2023-04-25T02:40:08;4.65;;;3.25;;
20476;SDS011;10397;50.948;11.092;2023-04-25T02:42:39;4.12;;;2.30;;
20476;SDS011;10397;50.948;11.092;2023-04-25T02:45:11;4.15;;;2.85;;
20476;SDS011;10397;50.948;11.092;2023-04-25T02:47:43;6.78;;;2.55;;
20476;SDS011;10397;50.948;11.092;2023-04-25T02:50:14;7.00;;;2.33;;
20476;SDS011;10397;50.948;11.092;2023-04-25T02:52:45;4.87;;;3.02;;
20476;SDS011;10397;50.948;11.092;2023-04-25T02:55:17;3.90;;;2.62;;
20476;SDS011;10397;50.948;11.092;2023-04-25T02:57:48;4.08;;;2.42;;
20476;SDS011;10397;50.948;11.092;2023-04-25T03:00:20;4.25;;;2.45;;
20476;SDS011;10397;50.948;11.092;2023-04-25T03:02:51;3.33;;;2.67;;
20476;SDS011;10397;50.948;11.092;2023-04-25T03:05:23;8.23;;;2.60;;
20476;SDS011;10397;50.948;11.092;2023-04-25T03:07:54;4.65;;;2.50;;
20476;SDS011;10397;50.948;11.092;2023-04-25T03:10:26;4.80;;;2.27;;
20476;SDS011;10397;50.948;11.092;2023-04-25T03:12:57;4.08;;;2.47;;
20476;SDS011;10397;50.948;11.092;2023-04-25T03:15:29;3.45;;;2.47;;
20476;SDS011;10397;50.948;11.092;2023-04-25T03:18:01;3.33;;;2.20;;
20476;SDS011;10397;50.948;11.092;2023-04-25T03:20:31;5.40;;;2.43;;
20476;SDS011;10397;50.948;11.092;2023-04-25T03:23:02;3.52;;;2.22;;
20476;SDS011;10397;50.948;11.092;2023-04-25T03:25:34;4.85;;;2.50;;
20476;SDS011;10397;50.948;11.092;2023-04-25T03:28:05;3.77;;;2.47;;
20476;SDS011;10397;50.948;11.092;2023-04-25T03:30:37;5.37;;;2.25;;
20476;SDS011;10397;50.948;11.092;2023-04-25T03:33:09;8.00;;;2.40;;
20476;SDS011;10397;50.948;11.092;2023-04-25T03:35:40;3.83;;;2.47;;
20476;SDS011;10397;50.948;11.092;2023-04-25T03:38:12;3.10;;;2.40;;
20476;SDS011;10397;50.948;11.092;2023-04-25T03:40:43;4.40;;;2.80;;
20476;SDS011;10397;50.948;11.092;2023-04-25T03:43:14;3.90;;;2.30;;
20476;SDS011;10397;50.948;11.092;2023-04-25T03:45:46;5.00;;;2.10;;
20476;SDS011;10397;50.948;11.092;2023-04-25T03:48:18;6.53;;;2.67;;
20476;SDS011;10397;50.948;11.092;2023-04-25T03:50:52;4.60;;;2.43;;
20476;SDS011;10397;50.948;11.092;2023-04-25T03:53:23;4.80;;;2.42;;
20476;SDS011;10397;50.948;11.092;2023-04-25T03:55:54;7.37;;;2.58;;
20476;SDS011;10397;50.948;11.092;2023-04-25T03:58:26;3.52;;;2.72;;
20476;SDS011;10397;50.948;11.092;2023-04-25T04:00:57;6.08;;;2.87;;
20476;SDS011;10397;50.948;11.092;2023-04-25T04:03:29;4.35;;;3.00;;
20476;SDS011;10397;50.948;11.092;2023-04-25T04:06:01;4.58;;;3.00;;
20476;SDS011;10397;50.948;11.092;2023-04-25T04:08:31;4.33;;;2.57;;
20476;SDS011;10397;50.948;11.092;2023-04-25T04:11:02;7.40;;;3.05;;
20476;SDS011;10397;50.948;11.092;2023-04-25T04:13:33;5.28;;;2.47;;
20476;SDS011;10397;50.948;11.092;2023-04-25T04:16:05;4.40;;;2.50;;
20476;SDS011;10397;50.948;11.092;2023-04-25T04:18:36;4.15;;;2.98;;
20476;SDS011;10397;50.948;11.092;2023-04-25T04:21:08;9.65;;;2.92;;
20476;SDS011;10397;50.948;11.092;2023-04-25T04:23:39;9.50;;;3.30;;
20476;SDS011;10397;50.948;11.092;2023-04-25T04:26:10;3.50;;;2.43;;
20476;SDS011;10397;50.948;11.092;2023-04-25T04:28:42;2.52;;;2.20;;
20476;SDS011;10397;50.948;11.092;2023-04-25T04:31:13;5.03;;;3.08;;
20476;SDS011;10397;50.948;11.092;2023-04-25T04:33:44;4.42;;;2.70;;
20476;SDS011;10397;50.948;11.092;2023-04-25T04:36:15;5.57;;;2.67;;
20476;SDS011;10397;50.948;11.092;2023-04-25T04:38:46;4.80;;;2.87;;
20476;SDS011;10397;50.948;11.092;2023-04-25T04:41:18;9.35;;;2.85;;
20476;SDS011;10397;50.948;11.092;2023-04-25T04:43:48;5.37;;;2.47;;
20476;SDS011;10397;50.948;11.092;2023-04-25T04:46:19;5.47;;;2.67;;
20476;SDS011;10397;50.948;11.092;2023-04-25T04:48:50;4.22;;;2.52;;
20476;SDS011;10397;50.948;11.092;2023-04-25T04:51:22;11.65;;;3.52;;
20476;SDS011;10397;50.948;11.092;2023-04-25T04:53:54;5.75;;;2.77;;
20476;SDS011;10397;50.948;11.092;2023-04-25T04:56:25;6.40;;;2.70;;
20476;SDS011;10397;50.948;11.092;2023-04-25T04:58:59;5.92;;;3.08;;
20476;SDS011;10397;50.948;11.092;2023-04-25T05:01:31;6.22;;;2.87;;
20476;SDS011;10397;50.948;11.092;2023-04-25T05:04:06;5.87;;;2.77;;
20476;SDS011;10397;50.948;11.092;2023-04-25T05:06:37;5.67;;;3.47;;
20476;SDS011;10397;50.948;11.092;2023-04-25T05:09:08;6.27;;;3.20;;
20476;SDS011;10397;50.948;11.092;2023-04-25T05:11:40;9.18;;;2.85;;
20476;SDS011;10397;50.948;11.092;2023-04-25T05:14:11;7.55;;;3.20;;
20476;SDS011;10397;50.948;11.092;2023-04-25T05:16:43;5.78;;;2.62;;
20476;SDS011;10397;50.948;11.092;2023-04-25T05:19:13;5.37;;;2.77;;
20476;SDS011;10397;50.948;11.092;2023-04-25T05:21:45;6.35;;;2.85;;
20476;SDS011;10397;50.948;11.092;2023-04-25T05:24:16;4.65;;;3.10;;
20476;SDS011;10397;50.948;11.092;2023-04-25T05:26:47;6.35;;;2.90;;
20476;SDS011;10397;50.948;11.092;2023-04-25T05:29:19;3.80;;;2.70;;
20476;SDS011;10397;50.948;11.092;2023-04-25T05:31:51;6.12;;;2.80;;
20476;SDS011;10397;50.948;11.092;2023-04-25T05:34:22;5.08;;;2.72;;
20476;SDS011;10397;50.948;11.092;2023-04-25T05:36:53;6.00;;;3.37;;
20476;SDS011;10397;50.948;11.092;2023-04-25T05:39:25;7.90;;;3.25;;
20476;SDS011;10397;50.948;11.092;2023-04-25T05:41:56;6.97;;;3.27;;
20476;SDS011;10397;50.948;11.092;2023-04-25T05:44:28;11.53;;;3.45;;
20476;SDS011;10397;50.948;11.092;2023-04-25T05:46:59;7.22;;;3.77;;
20476;SDS011;10397;50.948;11.092;2023-04-25T05:49:30;4.83;;;3.40;;
20476;SDS011;10397;50.948;11.092;2023-04-25T05:52:01;6.80;;;3.05;;
20476;SDS011;10397;50.948;11.092;2023-04-25T05:54:33;9.73;;;3.00;;
20476;SDS011;10397;50.948;11.092;2023-04-25T05:57:04;6.40;;;2.95;;
20476;SDS011;10397;50.948;11.092;2023-04-25T05:59:36;6.30;;;3.50;;
20476;SDS011;10397;50.948;11.092;2023-04-25T06:02:07;5.97;;;2.95;;
20476;SDS011;10397;50.948;11.092;2023-04-25T06:04:39;6.70;;;3.67;;
20476;SDS011;10397;50.948;11.092;2023-04-25T06:07:10;6.70;;;3.27;;
20476;SDS011;10397;50.948;11.092;2023-04-25T06:09:42;9.20;;;2.98;;
20476;SDS011;10397;50.948;11.092;2023-04-25T06:12:12;6.57;;;3.00;;
20476;SDS011;10397;50.948;11.092;2023-04-25T06:14:44;6.03;;;3.08;;
20476;SDS011;10397;50.948;11.092;2023-04-25T06:17:15;5.42;;;2.90;;
20476;SDS011;10397;50.948;11.092;2023-04-25T06:19:46;4.20;;;2.97;;
20476;SDS011;10397;50.948;11.092;2023-04-25T06:22:18;3.57;;;2.40;;
20476;SDS011;10397;50.948;11.092;2023-04-25T06:24:48;3.87;;;2.27;;
20476;SDS011;10397;50.948;11.092;2023-04-25T06:27:20;10.08;;;2.47;;
20476;SDS011;10397;50.948;11.092;2023-04-25T06:29:51;3.95;;;2.05;;
20476;SDS011;10397;50.948;11.092;2023-04-25T06:32:23;6.17;;;2.00;;
20476;SDS011;10397;50.948;11.092;2023-04-25T06:34:54;3.60;;;1.92;;
20476;SDS011;10397;50.948;11.092;2023-04-25T06:37:25;6.97;;;2.08;;
20476;SDS011;10397;50.948;11.092;2023-04-25T06:39:56;3.05;;;1.90;;
20476;SDS011;10397;50.948;11.092;2023-04-25T06:42:27;3.85;;;1.55;;
20476;SDS011;10397;50.948;11.092;2023-04-25T06:44:59;2.75;;;1.62;;
20476;SDS011;10397;50.948;11.092;2023-04-25T06:47:30;3.63;;;1.70;;
20476;SDS011;10397;50.948;11.092;2023-04-25T06:50:02;4.53;;;2.02;;
20476;SDS011;10397;50.948;11.092;2023-04-25T06:52:32;2.70;;;1.60;;
20476;SDS011;10397;50.948;11.092;2023-04-25T06:55:04;4.55;;;1.87;;
20476;SDS011;10397;50.948;11.092;2023-04-25T06:57:35;2.98;;;1.62;;
20476;SDS011;10397;50.948;11.092;2023-04-25T07:00:06;5.35;;;2.08;;
20476;SDS011;10397;50.948;11.092;2023-04-25T07:02:37;5.22;;;2.08;;
20476;SDS011;10397;50.948;11.092;2023-04-25T07:05:08;3.25;;;1.92;;
20476;SDS011;10397;50.948;11.092;2023-04-25T07:07:39;3.35;;;2.10;;
20476;SDS011;10397;50.948;11.092;2023-04-25T07:10:11;3.60;;;1.65;;
20476;SDS011;10397;50.948;11.092;2023-04-25T07:12:43;3.47;;;1.67;;
20476;SDS011;10397;50.948;11.092;2023-04-25T07:15:15;2.72;;;1.67;;
20476;SDS011;10397;50.948;11.092;2023-04-25T07:17:46;5.55;;;2.00;;
20476;SDS011;10397;50.948;11.092;2023-04-25T07:20:17;3.83;;;2.25;;
20476;SDS011;10397;50.948;11.092;2023-04-25T07:22:48;3.50;;;1.85;;
20476;SDS011;10397;50.948;11.092;2023-04-25T07:25:20;4.78;;;1.85;;
20476;SDS011;10397;50.948;11.092;2023-04-25T07:27:51;3.72;;;1.60;;
20476;SDS011;10397;50.948;11.092;2023-04-25T07:30:22;3.40;;;1.70;;
20476;SDS011;10397;50.948;11.092;2023-04-25T07:32:53;5.20;;;1.82;;
20476;SDS011;10397;50.948;11.092;2023-04-25T07:35:24;3.83;;;1.82;;
20476;SDS011;10397;50.948;11.092;2023-04-25T07:37:56;4.75;;;2.40;;
20476;SDS011;10397;50.948;11.092;2023-04-25T07:40:27;6.40;;;2.08;;
20476;SDS011;10397;50.948;11.092;2023-04-25T07:42:59;4.92;;;2.12;;
20476;SDS011;10397;50.948;11.092;2023-04-25T07:45:30;2.77;;;1.60;;
20476;SDS011;10397;50.948;11.092;2023-04-25T07:48:01;6.87;;;2.23;;
20476;SDS011;10397;50.948;11.092;2023-04-25T07:50:32;3.10;;;1.90;;
20476;SDS011;10397;50.948;11.092;2023-04-25T07:53:04;4.95;;;1.87;;
20476;SDS011;10397;50.948;11.092;2023-04-25T07:55:36;4.50;;;2.00;;
20476;SDS011;10397;50.948;11.092;2023-04-25T07:58:07;4.47;;;1.97;;
20476;SDS011;10397;50.948;11.092;2023-04-25T08:00:37;3.33;;;1.90;;
20476;SDS011;10397;50.948;11.092;2023-04-25T08:03:09;3.00;;;1.98;;
20476;SDS011;10397;50.948;11.092;2023-04-25T08:05:40;4.25;;;1.82;;
20476;SDS011;10397;50.948;11.092;2023-04-25T08:08:12;5.03;;;2.00;;
20476;SDS011;10397;50.948;11.092;2023-04-25T08:10:43;4.83;;;2.10;;
20476;SDS011;10397;50.948;11.092;2023-04-25T08:13:15;3.80;;;1.70;;
20476;SDS011;10397;50.948;11.092;2023-04-25T08:15:46;5.85;;;2.70;;
20476;SDS011;10397;50.948;11.092;2023-04-25T08:18:17;3.58;;;2.55;;
20476;SDS011;10397;50.948;11.092;2023-04-25T08:20:49;3.35;;;1.90;;
20476;SDS011;10397;50.948;11.092;2023-04-25T08:23:21;3.30;;;2.15;;
20476;SDS011;10397;50.948;11.092;2023-04-25T08:25:51;4.10;;;2.33;;
20476;SDS011;10397;50.948;11.092;2023-04-25T08:28:22;4.22;;;2.40;;
20476;SDS011;10397;50.948;11.092;2023-04-25T08:30:54;4.78;;;2.50;;
20476;SDS011;10397;50.948;11.092;2023-04-25T08:33:26;6.78;;;2.72;;
20476;SDS011;10397;50.948;11.092;2023-04-25T08:35:57;3.83;;;2.37;;
20476;SDS011;10397;50.948;11.092;2023-04-25T08:38:29;8.03;;;2.77;;
20476;SDS011;10397;50.948;11.092;2023-04-25T08:41:00;4.10;;;2.47;;
20476;SDS011;10397;50.948;11.092;2023-04-25T08:43:31;3.83;;;1.95;;
20476;SDS011;10397;50.948;11.092;2023-04-25T08:46:03;5.50;;;1.95;;
20476;SDS011;10397;50.948;11.092;2023-04-25T08:48:33;3.47;;;2.33;;
20476;SDS011;10397;50.948;11.092;2023-04-25T08:51:04;6.05;;;2.80;;
20476;SDS011;10397;50.948;11.092;2023-04-25T08:53:35;4.10;;;2.63;;
20476;SDS011;10397;50.948;11.092;2023-04-25T08:56:06;5.90;;;2.45;;
20476;SDS011;10397;50.948;11.092;2023-04-25T08:58:37;4.75;;;2.98;;
20476;SDS011;10397;50.948;11.092;2023-04-25T09:01:08;6.00;;;2.60;;
20476;SDS011;10397;50.948;11.092;2023-04-25T09:03:39;5.53;;;3.75;;
20476;SDS011;10397;50.948;11.092;2023-04-25T09:06:11;8.40;;;3.50;;
20476;SDS011;10397;50.948;11.092;2023-04-25T09:08:41;5.43;;;2.77;;
20476;SDS011;10397;50.948;11.092;2023-04-25T09:11:12;4.53;;;2.07;;
20476;SDS011;10397;50.948;11.092;2023-04-25T09:13:44;4.67;;;1.42;;
20476;SDS011;10397;50.948;11.092;2023-04-25T09:16:15;6.80;;;1.80;;
20476;SDS011;10397;50.948;11.092;2023-04-25T09:18:46;2.33;;;1.47;;
20476;SDS011;10397;50.948;11.092;2023-04-25T09:21:16;5.60;;;1.83;;
20476;SDS011;10397;50.948;11.092;2023-04-25T09:23:48;7.90;;;2.58;;
20476;SDS011;10397;50.948;11.092;2023-04-25T09:26:19;5.57;;;1.80;;
20476;SDS011;10397;50.948;11.092;2023-04-25T09:28:49;6.35;;;2.05;;
20476;SDS011;10397;50.948;11.092;2023-04-25T09:31:23;2.12;;;1.27;;
20476;SDS011;10397;50.948;11.092;2023-04-25T09:34:00;1.90;;;1.30;;
20476;SDS011;10397;50.948;11.092;2023-04-25T09:36:30;3.33;;;1.15;;
20476;SDS011;10397;50.948;11.092;2023-04-25T09:39:02;4.63;;;1.20;;
20476;SDS011;10397;50.948;11.092;2023-04-25T09:41:33;6.78;;;1.42;;
20476;SDS011;10397;50.948;11.092;2023-04-25T09:44:03;8.10;;;1.77;;
20476;SDS011;10397;50.948;11.092;2023-04-25T09:46:35;2.77;;;1.20;;
20476;SDS011;10397;50.948;11.092;2023-04-25T09:49:06;4.78;;;2.00;;
20476;SDS011;10397;50.948;11.092;2023-04-25T09:51:36;5.57;;;1.77;;
20476;SDS011;10397;50.948;11.092;2023-04-25T09:54:07;5.93;;;1.60;;
20476;SDS011;10397;50.948;11.092;2023-04-25T09:56:38;6.72;;;1.70;;
20476;SDS011;10397;50.948;11.092;2023-04-25T09:59:09;5.05;;;1.32;;
20476;SDS011;10397;50.948;11.092;2023-04-25T10:01:40;10.03;;;1.87;;
20476;SDS011;10397;50.948;11.092;2023-04-25T10:04:12;9.85;;;2.15;;
20476;SDS011;10397;50.948;11.092;2023-04-25T10:06:43;7.78;;;2.30;;
20476;SDS011;10397;50.948;11.092;2023-04-25T10:09:14;7.55;;;2.70;;
20476;SDS011;10397;50.948;11.092;2023-04-25T10:11:46;7.67;;;2.50;;
20476;SDS011;10397;50.948;11.092;2023-04-25T10:14:19;9.10;;;2.20;;
20476;SDS011;10397;50.948;11.092;2023-04-25T10:16:50;10.98;;;2.30;;
20476;SDS011;10397;50.948;11.092;2023-04-25T10:19:21;9.63;;;2.80;;
20476;SDS011;10397;50.948;11.092;2023-04-25T10:22:08;10.43;;;2.35;;
20476;SDS011;10397;50.948;11.092;2023-04-25T10:24:37;8.77;;;2.23;;
20476;SDS011;10397;50.948;11.092;2023-04-25T10:27:08;11.80;;;2.30;;
20476;SDS011;10397;50.948;11.092;2023-04-25T10:29:39;10.38;;;1.80;;
20476;SDS011;10397;50.948;11.092;2023-04-25T10:32:10;9.60;;;2.80;;
20476;SDS011;10397;50.948;11.092;2023-04-25T10:34:42;5.10;;;2.00;;
20476;SDS011;10397;50.948;11.092;2023-04-25T10:37:12;5.97;;;1.70;;
20476;SDS011;10397;50.948;11.092;2023-04-25T10:39:44;6.62;;;2.08;;
20476;SDS011;10397;50.948;11.092;2023-04-25T10:42:15;6.37;;;1.30;;
20476;SDS011;10397;50.948;11.092;2023-04-25T10:45:01;5.10;;;1.87;;
20476;SDS011;10397;50.948;11.092;2023-04-25T10:47:17;4.75;;;1.12;;
20476;SDS011;10397;50.948;11.092;2023-04-25T10:49:48;5.40;;;1.53;;
20476;SDS011;10397;50.948;11.092;2023-04-25T10:52:28;8.00;;;1.80;;
20476;SDS011;10397;50.948;11.092;2023-04-25T10:54:53;7.63;;;2.67;;
20476;SDS011;10397;50.948;11.092;2023-04-25T10:57:26;8.57;;;1.77;;
20476;SDS011;10397;50.948;11.092;2023-04-25T11:02:40;12.63;;;2.50;;
20476;SDS011;10397;50.948;11.092;2023-04-25T11:05:08;10.97;;;2.00;;
20476;SDS011;10397;50.948;11.092;2023-04-25T11:07:49;6.30;;;1.80;;
20476;SDS011;10397;50.948;11.092;2023-04-25T11:10:24;9.23;;;2.27;;
20476;SDS011;10397;50.948;11.092;2023-04-25T11:12:53;7.83;;;1.77;;
20476;SDS011;10397;50.948;11.092;2023-04-25T11:15:24;6.03;;;1.50;;
20476;SDS011;10397;50.948;11.092;2023-04-25T11:17:55;6.03;;;2.03;;
20476;SDS011;10397;50.948;11.092;2023-04-25T11:20:26;6.58;;;1.92;;
20476;SDS011;10397;50.948;11.092;2023-04-25T11:22:58;10.65;;;1.80;;
20476;SDS011;10397;50.948;11.092;2023-04-25T11:25:28;8.03;;;1.75;;
20476;SDS011;10397;50.948;11.092;2023-04-25T11:28:00;7.65;;;2.10;;
20476;SDS011;10397;50.948;11.092;2023-04-25T11:30:30;11.20;;;2.27;;
20476;SDS011;10397;50.948;11.092;2023-04-25T11:33:02;9.65;;;2.52;;
20476;SDS011;10397;50.948;11.092;2023-04-25T11:35:32;7.90;;;1.60;;
20476;SDS011;10397;50.948;11.092;2023-04-25T11:38:04;7.92;;;1.60;;
20476;SDS011;10397;50.948;11.092;2023-04-25T11:40:35;7.00;;;1.50;;
20476;SDS011;10397;50.948;11.092;2023-04-25T11:45:56;6.07;;;1.67;;
20476;SDS011;10397;50.948;11.092;2023-04-25T11:48:27;9.18;;;1.57;;
20476;SDS011;10397;50.948;11.092;2023-04-25T11:50:59;6.22;;;1.67;;
20476;SDS011;10397;50.948;11.092;2023-04-25T11:53:29;8.55;;;1.82;;
20476;SDS011;10397;50.948;11.092;2023-04-25T11:56:01;11.38;;;2.87;;
20476;SDS011;10397;50.948;11.092;2023-04-25T11:58:32;6.30;;;1.57;;
20476;SDS011;10397;50.948;11.092;2023-04-25T12:01:02;5.93;;;1.90;;
20476;SDS011;10397;50.948;11.092;2023-04-25T12:03:33;8.20;;;1.50;;
20476;SDS011;10397;50.948;11.092;2023-04-25T12:06:05;6.60;;;2.00;;
20476;SDS011;10397;50.948;11.092;2023-04-25T12:08:36;4.25;;;1.37;;
20476;SDS011;10397;50.948;11.092;2023-04-25T12:11:19;5.17;;;1.25;;
20476;SDS011;10397;50.948;11.092;2023-04-25T12:13:39;12.72;;;1.82;;
20476;SDS011;10397;50.948;11.092;2023-04-25T12:16:10;7.83;;;1.50;;
20476;SDS011;10397;50.948;11.092;2023-04-25T12:18:41;6.27;;;1.60;;
20476;SDS011;10397;50.948;11.092;2023-04-25T12:21:12;7.13;;;1.60;;
20476;SDS011;10397;50.948;11.092;2023-04-25T12:23:43;12.93;;;2.10;;
20476;SDS011;10397;50.948;11.092;2023-04-25T12:26:14;9.68;;;1.92;;
20476;SDS011;10397;50.948;11.092;2023-04-25T12:28:45;5.87;;;1.57;;
20476;SDS011;10397;50.948;11.092;2023-04-25T12:31:16;7.55;;;1.90;;
20476;SDS011;10397;50.948;11.092;2023-04-25T12:33:47;5.20;;;1.37;;
20476;SDS011;10397;50.948;11.092;2023-04-25T12:36:18;5.65;;;1.75;;
20476;SDS011;10397;50.948;11.092;2023-04-25T12:38:50;4.78;;;1.15;;
20476;SDS011;10397;50.948;11.092;2023-04-25T12:41:21;10.27;;;1.83;;
20476;SDS011;10397;50.948;11.092;2023-04-25T12:43:52;4.90;;;0.95;;
20476;SDS011;10397;50.948;11.092;2023-04-25T12:46:23;5.93;;;1.20;;
20476;SDS011;10397;50.948;11.092;2023-04-25T12:48:54;6.62;;;1.45;;
20476;SDS011;10397;50.948;11.092;2023-04-25T12:51:26;7.10;;;1.17;;
20476;SDS011;10397;50.948;11.092;2023-04-25T12:53:56;5.00;;;1.70;;
20476;SDS011;10397;50.948;11.092;2023-04-25T12:56:28;5.92;;;1.65;;
20476;SDS011;10397;50.948;11.092;2023-04-25T12:58:58;8.37;;;1.20;;
20476;SDS011;10397;50.948;11.092;2023-04-25T13:01:29;5.72;;;1.60;;
20476;SDS011;10397;50.948;11.092;2023-04-25T13:04:01;5.97;;;1.45;;
20476;SDS011;10397;50.948;11.092;2023-04-25T13:06:32;4.22;;;1.35;;
20476;SDS011;10397;50.948;11.092;2023-04-25T13:09:03;5.20;;;1.30;;
20476;SDS011;10397;50.948;11.092;2023-04-25T13:11:34;8.50;;;1.97;;
20476;SDS011;10397;50.948;11.092;2023-04-25T13:14:05;5.53;;;1.67;;
20476;SDS011;10397;50.948;11.092;2023-04-25T13:16:36;7.47;;;1.50;;
20476;SDS011;10397;50.948;11.092;2023-04-25T13:19:07;10.75;;;1.42;;
20476;SDS011;10397;50.948;11.092;2023-04-25T13:21:38;5.93;;;1.13;;
20476;SDS011;10397;50.948;11.092;2023-04-25T13:24:09;8.77;;;1.70;;
20476;SDS011;10397;50.948;11.092;2023-04-25T13:26:40;4.50;;;1.57;;
20476;SDS011;10397;50.948;11.092;2023-04-25T13:29:11;7.83;;;1.00;;
20476;SDS011;10397;50.948;11.092;2023-04-25T13:31:42;4.87;;;1.20;;
20476;SDS011;10397;50.948;11.092;2023-04-25T13:34:14;5.50;;;1.22;;
20476;SDS011;10397;50.948;11.092;2023-04-25T13:36:45;5.25;;;0.95;;
20476;SDS011;10397;50.948;11.092;2023-04-25T13:39:16;4.05;;;1.27;;
20476;SDS011;10397;50.948;11.092;2023-04-25T13:41:48;5.40;;;1.10;;
20476;SDS011;10397;50.948;11.092;2023-04-25T13:44:20;10.93;;;1.72;;
20476;SDS011;10397;50.948;11.092;2023-04-25T13:46:51;6.67;;;1.27;;
20476;SDS011;10397;50.948;11.092;2023-04-25T13:49:22;5.53;;;1.00;;
20476;SDS011;10397;50.948;11.092;2023-04-25T13:51:54;7.50;;;1.70;;
20476;SDS011;10397;50.948;11.092;2023-04-25T13:54:25;5.07;;;1.07;;
20476;SDS011;10397;50.948;11.092;2023-04-25T13:56:56;12.10;;;1.70;;
20476;SDS011;10397;50.948;11.092;2023-04-25T13:59:27;8.93;;;0.90;;
20476;SDS011;10397;50.948;11.092;2023-04-25T14:01:59;5.85;;;1.50;;
20476;SDS011;10397;50.948;11.092;2023-04-25T14:04:30;6.62;;;1.57;;
20476;SDS011;10397;50.948;11.092;2023-04-25T14:07:02;6.67;;;1.30;;
20476;SDS011;10397;50.948;11.092;2023-04-25T14:09:31;2.70;;;0.68;;
20476;SDS011;10397;50.948;11.092;2023-04-25T14:12:02;6.40;;;0.98;;
20476;SDS011;10397;50.948;11.092;2023-04-25T14:14:33;5.00;;;1.37;;
20476;SDS011;10397;50.948;11.092;2023-04-25T14:17:04;4.50;;;1.10;;
20476;SDS011;10397;50.948;11.092;2023-04-25T14:19:35;3.72;;;1.00;;
20476;SDS011;10397;50.948;11.092;2023-04-25T14:22:07;7.45;;;0.90;;
20476;SDS011;10397;50.948;11.092;2023-04-25T14:24:38;6.00;;;1.20;;
20476;SDS011;10397;50.948;11.092;2023-04-25T14:27:10;7.00;;;1.37;;
20476;SDS011;10397;50.948;11.092;2023-04-25T14:29:41;4.73;;;1.00;;
20476;SDS011;10397;50.948;11.092;2023-04-25T14:32:12;9.17;;;1.13;;
20476;SDS011;10397;50.948;11.092;2023-04-25T14:34:43;5.07;;;1.60;;
20476;SDS011;10397;50.948;11.092;2023-04-25T14:37:14;6.33;;;1.17;;
20476;SDS011;10397;50.948;11.092;2023-04-25T14:39:45;3.17;;;1.07;;
20476;SDS011;10397;50.948;11.092;2023-04-25T14:42:16;4.90;;;1.17;;
20476;SDS011;10397;50.948;11.092;2023-04-25T14:44:47;4.47;;;1.00;;
20476;SDS011;10397;50.948;11.092;2023-04-25T14:47:19;3.70;;;1.00;;
20476;SDS011;10397;50.948;11.092;2023-04-25T14:49:49;4.00;;;1.03;;
20476;SDS011;10397;50.948;11.092;2023-04-25T14:52:21;4.30;;;1.30;;
20476;SDS011;10397;50.948;11.092;2023-04-25T14:54:52;3.25;;;0.80;;
20476;SDS011;10397;50.948;11.092;2023-04-25T14:57:23;3.08;;;0.78;;
20476;SDS011;10397;50.948;11.092;2023-04-25T14:59:54;2.87;;;1.27;;
20476;SDS011;10397;50.948;11.092;2023-04-25T15:02:25;2.27;;;0.70;;